Time;durP1;ratioP1;P1;durP2;ratioP2;P2;SDS_P1;SDS_P2;PMS_P1;PMS_P2;Temp;Humidity;BMP_temperature;BMP_pressure;BME280_temperature;BME280_humidity;BME280_pressure;Samples;Min_cycle;Max_cycle;Signal;HPM_P1;HPM_P2
2022/06/29 00:00:11;;;;;;;1.67;1.10;;;;;;;;;;5001529;28;20243;-17
2022/06/29 00:02:39;;;;;;;2.90;1.38;;;;;;;;;;4997261;28;20423;-17
2022/06/29 00:05:07;;;;;;;2.50;1.13;;;;;;;;;;4996036;28;20238;-17
2022/06/29 00:07:34;;;;;;;2.30;1.00;;;;;;;;;;4995120;28;20606;-17
2022/06/29 00:10:03;;;;;;;5.05;1.23;;;;;;;;;;4992055;28;20419;-17
2022/06/29 00:12:31;;;;;;;8.15;1.20;;;;;;;;;;4991287;28;20236;-17
2022/06/29 00:14:58;;;;;;;11.27;2.20;;;;;;;;;;4989033;28;20935;-17
2022/06/29 00:17:25;;;;;;;4.40;1.15;;;;;;;;;;4990929;28;20243;-17
2022/06/29 00:19:53;;;;;;;12.02;1.20;;;;;;;;;;4991964;28;20224;-17
2022/06/29 00:22:20;;;;;;;4.20;1.33;;;;;;;;;;4991545;28;20743;-17
2022/06/29 00:24:48;;;;;;;4.78;1.30;;;;;;;;;;4989486;28;21102;-17
2022/06/29 00:27:16;;;;;;;3.65;1.00;;;;;;;;;;4989045;28;20234;-17
2022/06/29 00:29:44;;;;;;;2.75;0.90;;;;;;;;;;4991684;28;20241;-17
2022/06/29 00:32:11;;;;;;;2.97;1.20;;;;;;;;;;4993790;28;20265;-17
2022/06/29 00:34:38;;;;;;;2.90;1.20;;;;;;;;;;4991426;28;20240;-17
2022/06/29 00:37:06;;;;;;;1.52;1.08;;;;;;;;;;4992452;28;20236;-17
2022/06/29 00:39:33;;;;;;;2.03;0.90;;;;;;;;;;4991596;28;20228;-17
2022/06/29 00:42:01;;;;;;;2.15;1.00;;;;;;;;;;4991841;28;20235;-17
2022/06/29 00:44:29;;;;;;;2.55;1.00;;;;;;;;;;4992406;28;20247;-17
2022/06/29 00:46:58;;;;;;;2.42;0.95;;;;;;;;;;4991756;28;20235;-17
2022/06/29 00:49:25;;;;;;;1.75;1.10;;;;;;;;;;4991945;28;20628;-17
2022/06/29 00:51:57;;;;;;;3.25;1.00;;;;;;;;;;4992220;28;20247;-17
2022/06/29 00:54:25;;;;;;;1.83;0.95;;;;;;;;;;4992665;28;20820;-17
2022/06/29 00:56:52;;;;;;;2.97;1.30;;;;;;;;;;4991320;28;20239;-17
2022/06/29 00:59:22;;;;;;;3.70;0.98;;;;;;;;;;4991780;28;20240;-17
2022/06/29 01:01:51;;;;;;;1.95;0.85;;;;;;;;;;5000893;28;20702;-17
2022/06/29 01:04:19;;;;;;;2.08;1.00;;;;;;;;;;4991508;28;20299;-17
2022/06/29 01:06:46;;;;;;;5.28;1.30;;;;;;;;;;4995727;28;20346;-17
2022/06/29 01:09:14;;;;;;;3.40;1.13;;;;;;;;;;4990618;28;20232;-17
2022/06/29 01:11:42;;;;;;;1.58;0.75;;;;;;;;;;4997187;28;20243;-17
2022/06/29 01:14:14;;;;;;;2.45;1.13;;;;;;;;;;4989970;28;20236;-17
2022/06/29 01:16:41;;;;;;;5.40;1.00;;;;;;;;;;4988497;28;20238;-18
2022/06/29 01:19:10;;;;;;;4.75;1.00;;;;;;;;;;5008895;28;20267;-18
2022/06/29 01:21:37;;;;;;;1.85;0.90;;;;;;;;;;4991653;28;20250;-18
2022/06/29 01:24:06;;;;;;;3.58;1.30;;;;;;;;;;4991093;28;20251;-18
2022/06/29 01:26:34;;;;;;;4.43;1.30;;;;;;;;;;4991526;28;20242;-18
2022/06/29 01:29:01;;;;;;;2.00;1.08;;;;;;;;;;4990251;28;20601;-17
2022/06/29 01:31:28;;;;;;;4.28;1.30;;;;;;;;;;4988820;28;20577;-18
2022/06/29 01:33:56;;;;;;;4.93;1.00;;;;;;;;;;4991117;28;20326;-18
2022/06/29 01:36:23;;;;;;;1.98;1.02;;;;;;;;;;4991213;28;20251;-18
2022/06/29 01:38:51;;;;;;;2.95;1.05;;;;;;;;;;4991232;28;20232;-18
2022/06/29 01:41:19;;;;;;;1.65;1.00;;;;;;;;;;4991365;28;20231;-18
2022/06/29 01:43:47;;;;;;;2.03;1.30;;;;;;;;;;4991053;28;20242;-18
2022/06/29 01:46:14;;;;;;;2.42;1.00;;;;;;;;;;5002621;28;20236;-18
2022/06/29 01:48:42;;;;;;;3.15;0.90;;;;;;;;;;4994776;28;20232;-18
2022/06/29 01:51:09;;;;;;;2.33;1.05;;;;;;;;;;4994154;28;20236;-17
2022/06/29 01:53:36;;;;;;;1.83;1.25;;;;;;;;;;4998940;28;20327;-17
2022/06/29 01:56:04;;;;;;;4.45;1.50;;;;;;;;;;5003453;28;20238;-17
2022/06/29 01:58:33;;;;;;;2.35;1.20;;;;;;;;;;4995325;28;20235;-17
2022/06/29 02:01:00;;;;;;;2.33;1.05;;;;;;;;;;4994657;28;20228;-17
2022/06/29 02:03:27;;;;;;;1.67;1.20;;;;;;;;;;4994398;28;20232;-17
2022/06/29 02:05:55;;;;;;;9.88;1.17;;;;;;;;;;4994296;28;20228;-17
2022/06/29 02:08:22;;;;;;;4.18;1.75;;;;;;;;;;4994245;28;20324;-17
2022/06/29 02:10:50;;;;;;;2.15;1.40;;;;;;;;;;4994367;28;20244;-17
2022/06/29 02:13:17;;;;;;;1.75;1.38;;;;;;;;;;4994203;28;20280;-17
2022/06/29 02:15:46;;;;;;;3.97;1.30;;;;;;;;;;4994705;28;20224;-17
2022/06/29 02:18:13;;;;;;;1.90;1.00;;;;;;;;;;4993781;28;20659;-17
2022/06/29 02:20:41;;;;;;;2.97;1.40;;;;;;;;;;4994779;28;20239;-17
2022/06/29 02:23:08;;;;;;;5.88;1.30;;;;;;;;;;5057329;22;20242;-13
2022/06/29 02:25:35;;;;;;;4.10;1.13;;;;;;;;;;5052821;28;20713;-13
2022/06/29 02:28:03;;;;;;;2.30;1.10;;;;;;;;;;5051988;28;20285;-13
2022/06/29 02:36:01;;;;;;;2.00;1.25;;;;;;;;;;5052566;28;20242;-13
2022/06/29 02:38:29;;;;;;;2.00;1.30;;;;;;;;;;5053224;28;20238;-13
2022/06/29 02:40:56;;;;;;;2.72;1.20;;;;;;;;;;5054004;28;20991;-13
2022/06/29 02:43:23;;;;;;;8.00;1.80;;;;;;;;;;5052885;28;20237;-13
2022/06/29 02:45:51;;;;;;;1.60;1.10;;;;;;;;;;5052541;28;20713;-13
2022/06/29 02:48:20;;;;;;;2.17;1.10;;;;;;;;;;5053165;28;20317;-13
2022/06/29 02:50:47;;;;;;;4.57;1.50;;;;;;;;;;5066837;28;20238;-13
2022/06/29 02:53:14;;;;;;;6.82;1.33;;;;;;;;;;5052776;28;20241;-13
2022/06/29 02:55:42;;;;;;;2.10;1.17;;;;;;;;;;5052054;28;20226;-13
2022/06/29 02:58:09;;;;;;;3.72;1.38;;;;;;;;;;5053047;28;20234;-13
2022/06/29 03:00:37;;;;;;;2.45;1.38;;;;;;;;;;5062457;28;20241;-13
2022/06/29 03:03:04;;;;;;;3.08;1.40;;;;;;;;;;5039202;28;20229;-13
2022/06/29 03:05:33;;;;;;;2.47;1.65;;;;;;;;;;5053375;28;20236;-13
2022/06/29 03:08:00;;;;;;;2.08;1.40;;;;;;;;;;5051453;28;20232;-13
2022/06/29 03:10:27;;;;;;;5.50;1.60;;;;;;;;;;5052821;28;20237;-13
2022/06/29 03:12:55;;;;;;;4.10;2.50;;;;;;;;;;5052338;28;20230;-13
2022/06/29 03:15:25;;;;;;;1.48;1.25;;;;;;;;;;5055693;28;20230;-13
2022/06/29 03:17:53;;;;;;;3.42;1.60;;;;;;;;;;5056096;28;20346;-13
2022/06/29 03:20:20;;;;;;;3.17;1.33;;;;;;;;;;5060188;28;20229;-13
2022/06/29 03:22:49;;;;;;;2.08;1.33;;;;;;;;;;5057884;28;21374;-13
2022/06/29 03:25:16;;;;;;;2.90;1.60;;;;;;;;;;5052455;28;20238;-13
2022/06/29 03:27:44;;;;;;;3.15;1.40;;;;;;;;;;5052670;28;21266;-13
2022/06/29 03:30:11;;;;;;;4.30;1.55;;;;;;;;;;5050463;28;20614;-12
2022/06/29 03:32:39;;;;;;;2.75;1.98;;;;;;;;;;5060540;28;20226;-12
2022/06/29 03:35:08;;;;;;;4.80;1.83;;;;;;;;;;5052126;28;20229;-12
2022/06/29 03:37:35;;;;;;;4.03;1.58;;;;;;;;;;5052063;28;20697;-13
2022/06/29 03:40:04;;;;;;;3.90;1.58;;;;;;;;;;5054226;28;20236;-13
2022/06/29 03:42:32;;;;;;;3.33;1.73;;;;;;;;;;5052029;28;20226;-13
2022/06/29 03:44:59;;;;;;;3.30;1.98;;;;;;;;;;5051973;28;20241;-12
2022/06/29 03:47:26;;;;;;;2.90;1.67;;;;;;;;;;5051581;28;20230;-13
2022/06/29 03:49:54;;;;;;;2.47;1.55;;;;;;;;;;5043977;28;20253;-13
2022/06/29 03:52:21;;;;;;;2.45;1.77;;;;;;;;;;5049989;28;20234;-13
2022/06/29 03:54:48;;;;;;;3.40;1.95;;;;;;;;;;5051889;28;20279;-13
2022/06/29 03:57:17;;;;;;;4.28;1.77;;;;;;;;;;5051249;28;20230;-13
2022/06/29 03:59:44;;;;;;;4.30;1.85;;;;;;;;;;5051291;28;20241;-13
2022/06/29 04:02:12;;;;;;;3.08;1.73;;;;;;;;;;5053306;28;20226;-13
2022/06/29 04:04:39;;;;;;;4.50;1.67;;;;;;;;;;5051967;28;20241;-13
2022/06/29 04:07:07;;;;;;;4.18;2.28;;;;;;;;;;5052981;28;20981;-13
2022/06/29 04:09:34;;;;;;;2.78;1.83;;;;;;;;;;5047036;28;20241;-13
2022/06/29 04:12:01;;;;;;;1.67;1.58;;;;;;;;;;5052515;28;20332;-13
2022/06/29 04:14:30;;;;;;;2.08;1.88;;;;;;;;;;5051436;28;20231;-13
2022/06/29 04:16:58;;;;;;;3.72;1.90;;;;;;;;;;5061460;28;20244;-13
2022/06/29 04:19:25;;;;;;;3.15;1.88;;;;;;;;;;5063507;28;20248;-13
2022/06/29 04:21:52;;;;;;;5.10;1.85;;;;;;;;;;5059651;28;20320;-13
2022/06/29 04:24:20;;;;;;;3.15;2.15;;;;;;;;;;5058814;28;20234;-13
2022/06/29 04:26:47;;;;;;;3.90;1.95;;;;;;;;;;5060329;28;20229;-13
2022/06/29 04:29:15;;;;;;;5.50;2.17;;;;;;;;;;5056799;28;20237;-13
2022/06/29 04:31:43;;;;;;;3.70;2.40;;;;;;;;;;5061253;28;20229;-13
2022/06/29 04:34:11;;;;;;;4.60;2.30;;;;;;;;;;5054272;28;20230;-13
2022/06/29 04:36:38;;;;;;;3.83;2.15;;;;;;;;;;5059987;28;20277;-13
2022/06/29 04:39:05;;;;;;;6.82;2.58;;;;;;;;;;5054857;28;20232;-13
2022/06/29 04:41:33;;;;;;;4.43;2.35;;;;;;;;;;5059367;28;20590;-13
2022/06/29 04:44:00;;;;;;;4.72;2.20;;;;;;;;;;5061206;28;20325;-13
2022/06/29 04:46:28;;;;;;;4.47;2.13;;;;;;;;;;5058435;28;20229;-13
2022/06/29 04:48:58;;;;;;;3.35;2.42;;;;;;;;;;5056155;28;20289;-13
2022/06/29 04:51:26;;;;;;;5.03;2.35;;;;;;;;;;5048488;28;20280;-13
2022/06/29 04:53:55;;;;;;;2.65;1.90;;;;;;;;;;5056822;28;20240;-13
2022/06/29 04:56:23;;;;;;;3.72;2.20;;;;;;;;;;5056332;28;20384;-13
2022/06/29 04:58:53;;;;;;;4.03;2.58;;;;;;;;;;5046496;28;20706;-13
2022/06/29 05:01:20;;;;;;;2.42;2.22;;;;;;;;;;5050006;28;20226;-13
2022/06/29 05:03:48;;;;;;;3.30;2.00;;;;;;;;;;5057790;28;20234;-13
2022/06/29 05:06:17;;;;;;;4.95;2.40;;;;;;;;;;5050968;28;20234;-13
2022/06/29 05:08:44;;;;;;;6.25;2.58;;;;;;;;;;5050248;28;20233;-13
2022/06/29 05:11:13;;;;;;;3.97;2.65;;;;;;;;;;5049370;28;20253;-13
2022/06/29 05:13:41;;;;;;;2.42;1.98;;;;;;;;;;5043534;28;21039;-13
2022/06/29 05:16:09;;;;;;;2.70;2.50;;;;;;;;;;5055695;28;20226;-13
2022/06/29 05:18:37;;;;;;;2.63;2.03;;;;;;;;;;5050320;28;20237;-13
2022/06/29 05:21:04;;;;;;;2.85;2.40;;;;;;;;;;5049017;28;20219;-13
2022/06/29 05:23:33;;;;;;;3.78;2.40;;;;;;;;;;5050489;28;20627;-13
2022/06/29 05:26:00;;;;;;;3.00;2.67;;;;;;;;;;5050668;28;20235;-13
2022/06/29 05:28:28;;;;;;;7.30;2.40;;;;;;;;;;5050657;28;20234;-13
2022/06/29 05:30:55;;;;;;;2.70;2.50;;;;;;;;;;5049530;28;20249;-13
2022/06/29 05:33:22;;;;;;;4.40;2.60;;;;;;;;;;5036732;28;20230;-13
2022/06/29 05:35:50;;;;;;;4.22;2.60;;;;;;;;;;5049897;28;20233;-13
2022/06/29 05:38:18;;;;;;;6.97;3.00;;;;;;;;;;5050766;28;20635;-13
2022/06/29 05:40:46;;;;;;;4.95;3.42;;;;;;;;;;5048172;28;20697;-13
2022/06/29 05:43:14;;;;;;;5.03;3.00;;;;;;;;;;5051132;28;20302;-13
2022/06/29 05:45:41;;;;;;;3.47;2.97;;;;;;;;;;5050268;28;20229;-13
2022/06/29 05:48:09;;;;;;;4.88;3.22;;;;;;;;;;5047386;28;20234;-13
2022/06/29 05:50:36;;;;;;;4.63;3.20;;;;;;;;;;5047464;28;20238;-13
2022/06/29 05:53:04;;;;;;;7.40;3.03;;;;;;;;;;5045995;28;20265;-13
2022/06/29 05:55:31;;;;;;;3.83;2.38;;;;;;;;;;5045147;28;20237;-13
2022/06/29 05:58:00;;;;;;;5.80;3.13;;;;;;;;;;5046970;28;20237;-13
2022/06/29 06:00:27;;;;;;;5.90;3.08;;;;;;;;;;5046527;28;20230;-13
2022/06/29 06:02:55;;;;;;;3.28;2.78;;;;;;;;;;5051746;28;20710;-13
2022/06/29 06:05:22;;;;;;;6.28;3.20;;;;;;;;;;5047001;28;20230;-14
2022/06/29 06:07:50;;;;;;;4.82;3.20;;;;;;;;;;5042895;28;20270;-13
2022/06/29 06:10:17;;;;;;;3.72;3.00;;;;;;;;;;5047091;28;20230;-13
2022/06/29 06:12:44;;;;;;;3.17;2.90;;;;;;;;;;5047843;28;20668;-13
2022/06/29 06:15:13;;;;;;;4.10;3.10;;;;;;;;;;5050710;28;20272;-13
2022/06/29 06:17:40;;;;;;;6.38;3.00;;;;;;;;;;5043590;28;20241;-13
2022/06/29 06:20:09;;;;;;;4.47;3.00;;;;;;;;;;5049432;28;20230;-13
2022/06/29 06:22:36;;;;;;;4.97;3.20;;;;;;;;;;5046171;28;20250;-13
2022/06/29 06:25:04;;;;;;;5.72;3.30;;;;;;;;;;5041407;28;20638;-13
2022/06/29 06:27:31;;;;;;;6.00;3.50;;;;;;;;;;5050262;28;20252;-13
2022/06/29 06:29:59;;;;;;;4.47;2.63;;;;;;;;;;5050465;28;20234;-13
2022/06/29 06:32:27;;;;;;;3.75;2.90;;;;;;;;;;5056024;28;20233;-13
2022/06/29 06:34:55;;;;;;;6.60;2.58;;;;;;;;;;5055005;28;21175;-13
2022/06/29 06:37:22;;;;;;;3.30;2.50;;;;;;;;;;5048759;28;20253;-13
2022/06/29 06:42:31;;;;;;;4.22;2.80;;;;;;;;;;5056961;28;20444;-13
2022/06/29 06:44:58;;;;;;;5.97;2.58;;;;;;;;;;5050840;28;20226;-13
2022/06/29 06:47:26;;;;;;;2.97;2.47;;;;;;;;;;5053232;28;20230;-13
2022/06/29 06:49:54;;;;;;;2.72;2.40;;;;;;;;;;5054480;28;20249;-13
2022/06/29 06:52:22;;;;;;;3.50;2.65;;;;;;;;;;5054389;28;20230;-13
2022/06/29 06:54:49;;;;;;;3.95;2.58;;;;;;;;;;5055844;28;20649;-13
2022/06/29 06:57:16;;;;;;;3.85;2.08;;;;;;;;;;5052428;28;20234;-13
2022/06/29 06:59:44;;;;;;;3.65;1.73;;;;;;;;;;5052028;28;20232;-13
2022/06/29 07:02:11;;;;;;;17.20;4.28;;;;;;;;;;5055387;28;20230;-13
2022/06/29 07:04:39;;;;;;;6.07;3.10;;;;;;;;;;5050490;28;20234;-13
2022/06/29 07:07:07;;;;;;;6.47;2.40;;;;;;;;;;5055173;28;20266;-13
2022/06/29 07:09:35;;;;;;;7.32;2.65;;;;;;;;;;5056594;28;21072;-13
2022/06/29 07:12:02;;;;;;;3.60;2.20;;;;;;;;;;5057202;28;20264;-13
2022/06/29 07:14:30;;;;;;;4.50;2.65;;;;;;;;;;5058695;28;20221;-13
2022/06/29 07:16:58;;;;;;;5.80;2.63;;;;;;;;;;5058895;28;20239;-13
2022/06/29 07:19:25;;;;;;;4.07;2.08;;;;;;;;;;5056209;28;20288;-13
2022/06/29 07:21:52;;;;;;;5.35;1.90;;;;;;;;;;5053849;28;20250;-13
2022/06/29 07:24:21;;;;;;;4.00;2.10;;;;;;;;;;5048892;28;20238;-13
2022/06/29 07:26:49;;;;;;;3.10;1.88;;;;;;;;;;5050897;28;20234;-13
2022/06/29 07:29:16;;;;;;;3.42;1.92;;;;;;;;;;5053923;28;20345;-13
2022/06/29 07:31:43;;;;;;;5.40;1.65;;;;;;;;;;5051409;28;20975;-13
2022/06/29 07:34:11;;;;;;;3.13;2.20;;;;;;;;;;5056001;28;20231;-13
2022/06/29 07:36:38;;;;;;;3.10;2.05;;;;;;;;;;5054871;28;20700;-13
2022/06/29 07:39:05;;;;;;;3.47;2.03;;;;;;;;;;5054565;28;20971;-13
2022/06/29 07:41:36;;;;;;;6.07;2.20;;;;;;;;;;5053564;28;20426;-13
2022/06/29 07:44:03;;;;;;;2.63;1.80;;;;;;;;;;5051111;28;21168;-13
2022/06/29 07:46:31;;;;;;;3.45;1.80;;;;;;;;;;5058517;28;20238;-13
2022/06/29 07:48:58;;;;;;;4.43;2.28;;;;;;;;;;5045575;28;20258;-13
2022/06/29 07:51:25;;;;;;;6.60;2.10;;;;;;;;;;5049927;28;20940;-13
2022/06/29 07:53:53;;;;;;;6.70;1.90;;;;;;;;;;5044245;28;20744;-13
2022/06/29 07:56:20;;;;;;;4.30;2.10;;;;;;;;;;5051430;28;21006;-13
2022/06/29 07:58:54;;;;;;;6.50;2.15;;;;;;;;;;5043935;28;20261;-13
2022/06/29 08:01:21;;;;;;;5.78;2.20;;;;;;;;;;5054793;28;20230;-13
2022/06/29 08:03:49;;;;;;;5.45;2.42;;;;;;;;;;5050072;28;20247;-13
2022/06/29 08:06:16;;;;;;;5.97;2.13;;;;;;;;;;5047538;28;20426;-13
2022/06/29 08:08:44;;;;;;;7.53;2.13;;;;;;;;;;5051276;28;20226;-13
2022/06/29 08:11:11;;;;;;;9.25;2.53;;;;;;;;;;5052059;28;20268;-13
2022/06/29 08:13:39;;;;;;;14.45;2.50;;;;;;;;;;5051827;28;20284;-13
2022/06/29 08:16:08;;;;;;;8.55;2.70;;;;;;;;;;5057281;28;20271;-13
2022/06/29 08:18:36;;;;;;;5.80;2.22;;;;;;;;;;5040691;28;20226;-13
2022/06/29 08:21:03;;;;;;;3.30;2.00;;;;;;;;;;5051938;28;20226;-13
2022/06/29 08:23:30;;;;;;;5.68;2.47;;;;;;;;;;5051673;28;21019;-13
2022/06/29 08:25:58;;;;;;;4.43;1.83;;;;;;;;;;5051305;28;20241;-13
2022/06/29 08:28:45;;;;;;;5.15;2.10;;;;;;;;;;5050115;28;20731;-13
2022/06/29 08:31:14;;;;;;;4.97;2.17;;;;;;;;;;5060184;28;20253;-13
2022/06/29 08:33:43;;;;;;;7.65;2.13;;;;;;;;;;5053465;28;20295;-13
2022/06/29 08:36:10;;;;;;;3.92;2.30;;;;;;;;;;5051113;28;20234;-13
2022/06/29 08:38:58;;;;;;;3.15;2.00;;;;;;;;;;5048335;28;20252;-13
2022/06/29 08:41:26;;;;;;;2.10;1.90;;;;;;;;;;5051491;28;20232;-13
2022/06/29 08:43:54;;;;;;;3.83;2.33;;;;;;;;;;5051417;28;20281;-13
2022/06/29 08:46:22;;;;;;;2.65;2.10;;;;;;;;;;5053975;28;20238;-13
2022/06/29 08:48:50;;;;;;;2.83;1.85;;;;;;;;;;5050321;28;20230;-13
2022/06/29 08:51:17;;;;;;;3.33;2.00;;;;;;;;;;5052149;28;20245;-13
2022/06/29 08:53:45;;;;;;;2.40;1.80;;;;;;;;;;5050604;28;20250;-13
2022/06/29 08:56:12;;;;;;;2.38;1.90;;;;;;;;;;5051265;28;20698;-13
2022/06/29 08:58:40;;;;;;;3.28;2.35;;;;;;;;;;5050406;28;20230;-13
2022/06/29 09:01:08;;;;;;;4.38;2.25;;;;;;;;;;5053939;28;20987;-13
2022/06/29 09:03:37;;;;;;;5.75;2.60;;;;;;;;;;5063423;28;20326;-13
2022/06/29 09:06:06;;;;;;;2.35;2.15;;;;;;;;;;5066609;28;20234;-13
2022/06/29 09:08:33;;;;;;;5.53;2.35;;;;;;;;;;5051025;28;20231;-13
2022/06/29 09:11:16;;;;;;;2.67;2.00;;;;;;;;;;5050510;28;20218;-13
2022/06/29 09:13:43;;;;;;;3.72;2.38;;;;;;;;;;5050621;28;20292;-13
2022/06/29 09:16:11;;;;;;;8.65;2.00;;;;;;;;;;5056916;28;20226;-13
2022/06/29 09:18:39;;;;;;;3.80;2.08;;;;;;;;;;5044978;28;20787;-13
2022/06/29 09:21:07;;;;;;;4.22;2.13;;;;;;;;;;5047197;28;20692;-13
2022/06/29 09:23:35;;;;;;;7.22;2.22;;;;;;;;;;5010875;28;20232;-13
2022/06/29 09:26:02;;;;;;;3.15;2.35;;;;;;;;;;4997565;28;20232;-13
2022/06/29 09:28:31;;;;;;;3.47;1.98;;;;;;;;;;5009054;28;20228;-13
2022/06/29 09:30:58;;;;;;;6.15;2.22;;;;;;;;;;5011512;28;20242;-13
2022/06/29 09:33:26;;;;;;;3.83;2.30;;;;;;;;;;5010843;28;20243;-13
2022/06/29 09:36:12;;;;;;;4.80;2.20;;;;;;;;;;5011292;28;20228;-13
2022/06/29 09:38:40;;;;;;;3.85;2.33;;;;;;;;;;5010842;28;20237;-13
2022/06/29 09:41:07;;;;;;;4.13;2.13;;;;;;;;;;5011392;28;20235;-13
2022/06/29 09:43:35;;;;;;;4.25;2.10;;;;;;;;;;5016486;28;20626;-13
2022/06/29 09:46:03;;;;;;;6.90;2.83;;;;;;;;;;5011308;28;20322;-13
2022/06/29 09:48:32;;;;;;;3.50;2.13;;;;;;;;;;5010758;28;20592;-13
2022/06/29 09:50:59;;;;;;;2.95;1.83;;;;;;;;;;5011385;28;20239;-13
2022/06/29 09:53:32;;;;;;;3.63;1.83;;;;;;;;;;5010431;28;21661;-13
2022/06/29 09:55:59;;;;;;;3.83;1.90;;;;;;;;;;5011442;28;20231;-13
2022/06/29 09:58:29;;;;;;;3.10;2.15;;;;;;;;;;5008489;28;20691;-13
2022/06/29 10:03:41;;;;;;;2.97;1.90;;;;;;;;;;5002912;28;20282;-15
2022/06/29 10:06:09;;;;;;;3.70;2.00;;;;;;;;;;5004312;28;20227;-15
2022/06/29 10:08:38;;;;;;;3.92;1.50;;;;;;;;;;5007284;28;20250;-16
2022/06/29 10:13:39;;;;;;;5.13;2.05;;;;;;;;;;5010046;28;20231;-15
2022/06/29 10:13:54;;;;;;;2.95;1.70;;;;;;;;;;5007327;28;20338;-13
2022/06/29 10:16:23;;;;;;;2.97;2.10;;;;;;;;;;5013820;28;20531;-13
2022/06/29 10:18:57;;;;;;;1.90;1.70;;;;;;;;;;5008414;28;20322;-14
2022/06/29 10:21:24;;;;;;;3.80;2.20;;;;;;;;;;5013622;28;20699;-15
2022/06/29 10:23:53;;;;;;;5.32;2.00;;;;;;;;;;5048620;28;20241;-13
2022/06/29 10:26:40;;;;;;;6.10;2.10;;;;;;;;;;5049497;28;20252;-15
2022/06/29 10:29:41;;;;;;;3.97;1.90;;;;;;;;;;5051423;28;20244;-14
2022/06/29 10:32:12;;;;;;;6.38;2.10;;;;;;;;;;4946331;28;20330;-13
2022/06/29 10:35:04;;;;;;;2.97;1.73;;;;;;;;;;4940185;28;20372;-13
2022/06/29 10:37:29;;;;;;;3.50;1.83;;;;;;;;;;5006684;28;21016;-13
2022/06/29 10:40:08;;;;;;;4.45;1.95;;;;;;;;;;5048482;28;20634;-13
2022/06/29 10:45:17;;;;;;;2.33;1.88;;;;;;;;;;5042279;28;20234;-14
2022/06/29 10:47:45;;;;;;;1.77;1.60;;;;;;;;;;5050456;28;20270;-13
2022/06/29 10:50:23;;;;;;;3.45;1.73;;;;;;;;;;5048298;28;20238;-15
2022/06/29 10:52:51;;;;;;;4.38;2.08;;;;;;;;;;5047914;28;20253;-15
2022/06/29 10:55:19;;;;;;;5.05;1.75;;;;;;;;;;5050538;28;20242;-15
2022/06/29 10:57:47;;;;;;;3.40;1.83;;;;;;;;;;5051693;28;20241;-15
2022/06/29 11:00:15;;;;;;;4.30;1.80;;;;;;;;;;5051084;28;21043;-15
2022/06/29 11:02:43;;;;;;;4.30;1.70;;;;;;;;;;5047937;28;20237;-15
2022/06/29 11:05:10;;;;;;;3.70;1.90;;;;;;;;;;5049801;28;20241;-15
2022/06/29 11:13:11;;;;;;;3.58;1.73;;;;;;;;;;5042533;28;20241;-15
2022/06/29 11:15:42;;;;;;;4.68;1.83;;;;;;;;;;5051141;28;20234;-15
2022/06/29 11:18:11;;;;;;;3.22;2.10;;;;;;;;;;5046888;28;20245;-15
2022/06/29 11:20:38;;;;;;;2.35;1.90;;;;;;;;;;5050384;28;20230;-15
2022/06/29 11:23:09;;;;;;;3.70;1.70;;;;;;;;;;5046269;28;20371;-15
2022/06/29 11:25:38;;;;;;;3.45;1.88;;;;;;;;;;5050571;28;20234;-15
2022/06/29 11:28:06;;;;;;;3.85;2.60;;;;;;;;;;5048803;28;21174;-15
2022/06/29 11:30:33;;;;;;;4.28;2.10;;;;;;;;;;5053992;28;20239;-15
2022/06/29 11:33:03;;;;;;;5.30;2.20;;;;;;;;;;5048243;28;20720;-15
2022/06/29 11:35:31;;;;;;;5.63;2.35;;;;;;;;;;5049044;28;20230;-15
2022/06/29 11:38:01;;;;;;;3.92;2.70;;;;;;;;;;5046523;28;20427;-15
2022/06/29 11:40:30;;;;;;;3.33;2.53;;;;;;;;;;5047742;28;20288;-15
2022/06/29 11:43:07;;;;;;;5.55;2.42;;;;;;;;;;5050639;28;20940;-15
2022/06/29 11:45:37;;;;;;;5.47;2.75;;;;;;;;;;5056780;28;20311;-15
2022/06/29 11:48:10;;;;;;;4.68;2.78;;;;;;;;;;5048101;28;20324;-13
2022/06/29 11:50:41;;;;;;;5.45;2.67;;;;;;;;;;5051835;28;20317;-15
2022/06/29 11:53:09;;;;;;;5.13;2.78;;;;;;;;;;5052480;28;20222;-13
2022/06/29 11:55:40;;;;;;;2.92;2.50;;;;;;;;;;5050845;28;20245;-13
2022/06/29 11:58:10;;;;;;;4.72;2.63;;;;;;;;;;5052213;28;20230;-15
2022/06/29 12:00:39;;;;;;;5.28;3.05;;;;;;;;;;5055232;28;20240;-15
2022/06/29 12:03:06;;;;;;;4.10;2.40;;;;;;;;;;5052290;28;20230;-15
2022/06/29 12:05:34;;;;;;;5.13;2.75;;;;;;;;;;5051750;28;20372;-15
2022/06/29 12:08:01;;;;;;;3.58;2.80;;;;;;;;;;5049982;28;20230;-15
2022/06/29 12:10:29;;;;;;;4.47;2.70;;;;;;;;;;5052131;28;20241;-15
2022/06/29 12:12:56;;;;;;;3.15;2.47;;;;;;;;;;5052111;28;20226;-15
2022/06/29 12:15:25;;;;;;;3.03;2.50;;;;;;;;;;5054343;28;20236;-15
2022/06/29 12:17:52;;;;;;;4.05;2.75;;;;;;;;;;5060429;28;20972;-15
2022/06/29 12:20:20;;;;;;;3.33;2.53;;;;;;;;;;5051945;28;20237;-15
2022/06/29 12:23:04;;;;;;;4.65;2.38;;;;;;;;;;5051394;28;20300;-15
2022/06/29 12:25:35;;;;;;;3.20;2.47;;;;;;;;;;5063236;28;20312;-15
2022/06/29 12:28:02;;;;;;;3.63;2.13;;;;;;;;;;5054714;28;20225;-15
2022/06/29 12:30:31;;;;;;;3.95;2.55;;;;;;;;;;5055031;28;20233;-15
2022/06/29 12:32:58;;;;;;;2.63;2.42;;;;;;;;;;5055422;28;20238;-15
2022/06/29 12:35:26;;;;;;;6.40;2.42;;;;;;;;;;5052233;28;20238;-15
2022/06/29 12:37:57;;;;;;;2.25;2.05;;;;;;;;;;5051190;28;20227;-15
2022/06/29 12:40:25;;;;;;;5.82;2.30;;;;;;;;;;5050746;28;20280;-15
2022/06/29 12:42:52;;;;;;;2.60;2.40;;;;;;;;;;5051814;28;20254;-15
2022/06/29 12:45:20;;;;;;;2.88;2.20;;;;;;;;;;5053593;28;20277;-15
2022/06/29 12:47:49;;;;;;;2.90;2.15;;;;;;;;;;5059186;28;20234;-15
2022/06/29 12:50:16;;;;;;;2.97;2.60;;;;;;;;;;5051935;28;20226;-15
2022/06/29 12:52:46;;;;;;;3.80;2.25;;;;;;;;;;5052239;28;20333;-15
2022/06/29 12:55:13;;;;;;;4.88;2.17;;;;;;;;;;5052108;28;20246;-15
2022/06/29 12:57:41;;;;;;;3.40;2.10;;;;;;;;;;5048362;28;20785;-15
2022/06/29 13:00:09;;;;;;;2.53;1.88;;;;;;;;;;5043040;28;20240;-15
2022/06/29 13:02:36;;;;;;;3.65;1.88;;;;;;;;;;5051150;28;20681;-15
2022/06/29 13:05:06;;;;;;;2.92;2.10;;;;;;;;;;5051069;28;20653;-15
2022/06/29 13:07:34;;;;;;;3.05;2.15;;;;;;;;;;5051325;28;20229;-15
2022/06/29 13:10:02;;;;;;;2.55;2.05;;;;;;;;;;5049594;28;20240;-15
2022/06/29 13:12:29;;;;;;;2.53;2.00;;;;;;;;;;5052427;28;20743;-15
2022/06/29 13:14:56;;;;;;;2.60;1.80;;;;;;;;;;5050910;28;20243;-14
2022/06/29 13:17:24;;;;;;;3.30;1.98;;;;;;;;;;5055515;28;20233;-14
2022/06/29 13:19:51;;;;;;;3.40;1.85;;;;;;;;;;5048750;28;20230;-14
2022/06/29 13:22:20;;;;;;;2.67;2.03;;;;;;;;;;5050560;28;20729;-15
2022/06/29 13:24:48;;;;;;;4.43;1.80;;;;;;;;;;5052039;28;20273;-15
2022/06/29 13:27:15;;;;;;;4.18;1.80;;;;;;;;;;5051625;28;20237;-15
2022/06/29 13:29:43;;;;;;;2.28;1.85;;;;;;;;;;5050233;28;20939;-15
2022/06/29 13:32:10;;;;;;;3.22;1.70;;;;;;;;;;5053829;28;20605;-15
2022/06/29 13:34:37;;;;;;;3.83;2.10;;;;;;;;;;5050669;28;20659;-15
2022/06/29 13:37:05;;;;;;;2.55;1.70;;;;;;;;;;5050612;28;20242;-15
2022/06/29 13:39:33;;;;;;;4.93;2.15;;;;;;;;;;5050098;28;21040;-15
2022/06/29 13:42:01;;;;;;;2.47;1.92;;;;;;;;;;5050256;28;20226;-15
2022/06/29 13:44:28;;;;;;;3.40;1.63;;;;;;;;;;5050466;28;20237;-15
2022/06/29 13:46:56;;;;;;;2.45;1.90;;;;;;;;;;5056317;28;20244;-15
2022/06/29 13:49:24;;;;;;;3.30;1.73;;;;;;;;;;5050221;28;20701;-15
2022/06/29 13:51:55;;;;;;;3.05;1.60;;;;;;;;;;5050981;28;20235;-14
2022/06/29 13:54:22;;;;;;;4.53;2.17;;;;;;;;;;5049748;28;20238;-15
2022/06/29 13:56:51;;;;;;;2.47;1.65;;;;;;;;;;5050280;28;20246;-15
2022/06/29 13:59:18;;;;;;;2.55;1.50;;;;;;;;;;5050342;28;20229;-15
2022/06/29 14:01:46;;;;;;;2.47;1.63;;;;;;;;;;5064843;28;21019;-15
2022/06/29 14:04:14;;;;;;;4.28;1.77;;;;;;;;;;5040314;28;20681;-15
2022/06/29 14:06:42;;;;;;;2.20;2.03;;;;;;;;;;5049914;28;20257;-15
2022/06/29 14:09:10;;;;;;;3.75;2.00;;;;;;;;;;5049903;28;20787;-14
2022/06/29 14:11:40;;;;;;;2.58;1.55;;;;;;;;;;5050435;28;20226;-14
2022/06/29 14:14:08;;;;;;;1.90;1.70;;;;;;;;;;5064620;28;21048;-15
2022/06/29 14:16:36;;;;;;;3.95;1.90;;;;;;;;;;5050392;28;20238;-14
2022/06/29 14:19:03;;;;;;;4.65;1.83;;;;;;;;;;5050688;28;20237;-15
2022/06/29 14:21:31;;;;;;;2.15;1.45;;;;;;;;;;5052233;28;20323;-15
2022/06/29 14:23:58;;;;;;;2.45;2.00;;;;;;;;;;5050707;28;20992;-15
2022/06/29 14:26:26;;;;;;;4.65;1.90;;;;;;;;;;5052921;28;20230;-15
2022/06/29 14:28:55;;;;;;;2.78;1.67;;;;;;;;;;5052038;28;20724;-15
2022/06/29 14:31:24;;;;;;;3.95;1.88;;;;;;;;;;5053855;28;20223;-14
2022/06/29 14:33:52;;;;;;;5.30;1.83;;;;;;;;;;5049587;28;20325;-15
2022/06/29 14:36:25;;;;;;;6.05;1.90;;;;;;;;;;5050357;28;20330;-15
2022/06/29 14:38:53;;;;;;;5.00;1.85;;;;;;;;;;5048384;28;20226;-15
2022/06/29 14:41:21;;;;;;;9.43;2.30;;;;;;;;;;5055160;28;20234;-15
2022/06/29 14:43:48;;;;;;;14.30;2.10;;;;;;;;;;5049256;28;20320;-15
2022/06/29 14:46:16;;;;;;;6.57;1.90;;;;;;;;;;5055244;28;20229;-15
2022/06/29 14:48:45;;;;;;;8.77;1.75;;;;;;;;;;5052827;28;20226;-15
2022/06/29 14:51:13;;;;;;;4.10;1.60;;;;;;;;;;5053224;28;20226;-15
2022/06/29 14:53:45;;;;;;;3.05;2.10;;;;;;;;;;5049673;28;20238;-15
2022/06/29 14:56:12;;;;;;;3.08;1.40;;;;;;;;;;5065706;28;20242;-15
2022/06/29 14:58:39;;;;;;;10.45;1.70;;;;;;;;;;5051638;28;20230;-15
2022/06/29 15:01:07;;;;;;;3.65;1.85;;;;;;;;;;5053700;28;20230;-15
2022/06/29 15:03:34;;;;;;;3.45;1.63;;;;;;;;;;5052775;28;20234;-15
2022/06/29 15:06:03;;;;;;;4.30;1.45;;;;;;;;;;5052745;28;20227;-15
2022/06/29 15:08:30;;;;;;;1.98;1.33;;;;;;;;;;5051866;28;20237;-15